sensor_id;sensor_type;location;lat;lon;timestamp;pressure;altitude;pressure_sealevel;temperature;humidity
35758;BME280;21879;50.110;18.900;2024-02-16T00:04:25;99135.23;;;22.19;51.41
35758;BME280;21879;50.110;18.900;2024-02-16T00:14:31;99135.21;;;22.19;51.34
35758;BME280;21879;50.110;18.900;2024-02-16T00:24:38;99134.34;;;22.19;51.29
35758;BME280;21879;50.110;18.900;2024-02-16T00:34:43;99126.37;;;22.19;51.27
35758;BME280;21879;50.110;18.900;2024-02-16T00:44:49;99121.23;;;22.19;51.14
35758;BME280;21879;50.110;18.900;2024-02-16T00:54:54;99114.85;;;22.18;51.02
35758;BME280;21879;50.110;18.900;2024-02-16T01:05:00;99114.69;;;22.19;51.09
35758;BME280;21879;50.110;18.900;2024-02-16T01:15:08;99114.16;;;22.19;50.98
35758;BME280;21879;50.110;18.900;2024-02-16T01:25:14;99112.52;;;22.20;50.99
35758;BME280;21879;50.110;18.900;2024-02-16T01:35:19;99108.56;;;22.20;51.09
35758;BME280;21879;50.110;18.900;2024-02-16T01:45:25;99106.73;;;22.21;51.01
35758;BME280;21879;50.110;18.900;2024-02-16T01:55:30;99100.34;;;22.22;51.00
35758;BME280;21879;50.110;18.900;2024-02-16T02:05:42;99094.99;;;22.23;50.88
35758;BME280;21879;50.110;18.900;2024-02-16T02:15:49;99088.95;;;22.23;50.92
35758;BME280;21879;50.110;18.900;2024-02-16T02:25:55;99078.99;;;22.24;50.72
35758;BME280;21879;50.110;18.900;2024-02-16T02:36:00;99067.17;;;22.23;50.57
35758;BME280;21879;50.110;18.900;2024-02-16T02:46:07;99072.33;;;22.23;50.52
35758;BME280;21879;50.110;18.900;2024-02-16T02:56:13;99076.09;;;22.22;50.45
35758;BME280;21879;50.110;18.900;2024-02-16T03:06:20;99081.56;;;22.22;50.35
35758;BME280;21879;50.110;18.900;2024-02-16T03:16:28;99085.88;;;22.24;50.22
35758;BME280;21879;50.110;18.900;2024-02-16T03:26:33;99080.27;;;22.23;50.18
35758;BME280;21879;50.110;18.900;2024-02-16T03:36:39;99083.05;;;22.24;50.11
35758;BME280;21879;50.110;18.900;2024-02-16T03:46:45;99080.83;;;22.26;49.98
35758;BME280;21879;50.110;18.900;2024-02-16T03:56:53;99084.25;;;22.25;49.87
35758;BME280;21879;50.110;18.900;2024-02-16T04:06:59;99087.16;;;22.23;49.86
35758;BME280;21879;50.110;18.900;2024-02-16T04:17:05;99090.58;;;22.22;49.91
35758;BME280;21879;50.110;18.900;2024-02-16T04:27:10;99093.27;;;22.22;49.84
35758;BME280;21879;50.110;18.900;2024-02-16T04:37:16;99087.06;;;22.22;49.67
35758;BME280;21879;50.110;18.900;2024-02-16T04:47:22;99095.58;;;22.21;49.62
35758;BME280;21879;50.110;18.900;2024-02-16T04:57:30;99091.88;;;22.21;49.43
35758;BME280;21879;50.110;18.900;2024-02-16T05:07:35;99083.08;;;22.20;49.36
35758;BME280;21879;50.110;18.900;2024-02-16T05:17:41;99083.06;;;22.20;49.21
35758;BME280;21879;50.110;18.900;2024-02-16T05:27:47;99086.83;;;22.19;49.21
35758;BME280;21879;50.110;18.900;2024-02-16T05:37:52;99081.70;;;22.19;49.12
35758;BME280;21879;50.110;18.900;2024-02-16T05:47:59;99088.45;;;22.19;48.88
35758;BME280;21879;50.110;18.900;2024-02-16T05:58:05;99085.03;;;22.20;48.75
35758;BME280;21879;50.110;18.900;2024-02-16T06:08:11;99086.29;;;22.23;48.76
35758;BME280;21879;50.110;18.900;2024-02-16T06:18:16;99095.42;;;22.28;48.59
35758;BME280;21879;50.110;18.900;2024-02-16T06:28:22;99103.20;;;22.32;48.56
35758;BME280;21879;50.110;18.900;2024-02-16T06:38:28;99107.80;;;22.36;48.46
35758;BME280;21879;50.110;18.900;2024-02-16T06:48:33;99108.38;;;22.38;48.34
35758;BME280;21879;50.110;18.900;2024-02-16T06:58:40;99116.71;;;22.41;48.13
35758;BME280;21879;50.110;18.900;2024-02-16T07:08:45;99121.21;;;22.43;48.15
35758;BME280;21879;50.110;18.900;2024-02-16T07:18:51;99122.88;;;22.42;48.04
35758;BME280;21879;50.110;18.900;2024-02-16T07:28:56;99129.84;;;22.41;47.80
35758;BME280;21879;50.110;18.900;2024-02-16T07:39:02;99133.42;;;22.40;47.81
35758;BME280;21879;50.110;18.900;2024-02-16T07:49:09;99133.28;;;22.40;47.74
35758;BME280;21879;50.110;18.900;2024-02-16T07:59:16;99127.19;;;22.41;47.59
35758;BME280;21879;50.110;18.900;2024-02-16T08:09:23;99125.33;;;22.43;48.39
35758;BME280;21879;50.110;18.900;2024-02-16T08:19:32;99121.76;;;22.47;49.00
35758;BME280;21879;50.110;18.900;2024-02-16T08:29:38;99108.66;;;22.47;49.02
35758;BME280;21879;50.110;18.900;2024-02-16T08:39:44;99108.40;;;22.48;49.22
35758;BME280;21879;50.110;18.900;2024-02-16T08:49:49;99109.76;;;22.49;49.42
35758;BME280;21879;50.110;18.900;2024-02-16T08:59:55;99107.16;;;22.51;49.58
35758;BME280;21879;50.110;18.900;2024-02-16T09:10:01;99104.86;;;22.55;49.77
35758;BME280;21879;50.110;18.900;2024-02-16T09:20:09;99102.86;;;22.59;49.82
35758;BME280;21879;50.110;18.900;2024-02-16T09:30:16;99100.35;;;22.63;49.89
35758;BME280;21879;50.110;18.900;2024-02-16T09:40:22;99101.73;;;22.67;49.92
35758;BME280;21879;50.110;18.900;2024-02-16T09:50:28;99099.91;;;22.72;49.84
35758;BME280;21879;50.110;18.900;2024-02-16T10:00:34;99105.73;;;22.75;49.82
35758;BME280;21879;50.110;18.900;2024-02-16T10:10:39;99110.49;;;22.79;49.48
35758;BME280;21879;50.110;18.900;2024-02-16T10:20:45;99106.50;;;22.81;49.14
35758;BME280;21879;50.110;18.900;2024-02-16T10:30:51;99098.23;;;22.83;48.58
35758;BME280;21879;50.110;18.900;2024-02-16T10:40:57;99093.77;;;22.87;48.13
35758;BME280;21879;50.110;18.900;2024-02-16T10:51:05;99086.08;;;22.92;47.71
35758;BME280;21879;50.110;18.900;2024-02-16T11:01:15;99083.56;;;22.96;47.22
35758;BME280;21879;50.110;18.900;2024-02-16T11:11:23;99071.08;;;23.01;46.62
35758;BME280;21879;50.110;18.900;2024-02-16T11:21:29;99067.28;;;23.05;46.12
35758;BME280;21879;50.110;18.900;2024-02-16T11:31:35;99058.98;;;23.11;45.53
35758;BME280;21879;50.110;18.900;2024-02-16T11:41:40;99054.67;;;23.18;45.19
35758;BME280;21879;50.110;18.900;2024-02-16T11:51:46;99045.23;;;23.25;44.95
35758;BME280;21879;50.110;18.900;2024-02-16T12:01:53;99036.70;;;23.32;44.44
35758;BME280;21879;50.110;18.900;2024-02-16T12:11:59;99026.33;;;23.39;44.35
35758;BME280;21879;50.110;18.900;2024-02-16T12:22:06;99020.39;;;23.47;44.01
35758;BME280;21879;50.110;18.900;2024-02-16T12:32:11;99015.36;;;23.54;43.48
35758;BME280;21879;50.110;18.900;2024-02-16T12:42:23;99010.83;;;23.62;43.50
35758;BME280;21879;50.110;18.900;2024-02-16T12:52:29;99006.63;;;23.71;43.63
35758;BME280;21879;50.110;18.900;2024-02-16T13:02:46;99003.87;;;23.82;43.50
35758;BME280;21879;50.110;18.900;2024-02-16T13:12:52;99001.13;;;23.89;43.18
35758;BME280;21879;50.110;18.900;2024-02-16T13:22:57;98996.05;;;23.94;43.00
35758;BME280;21879;50.110;18.900;2024-02-16T13:33:05;98987.05;;;23.99;42.75
35758;BME280;21879;50.110;18.900;2024-02-16T13:43:13;98978.84;;;24.05;42.62
35758;BME280;21879;50.110;18.900;2024-02-16T13:53:18;98978.67;;;24.14;42.62
35758;BME280;21879;50.110;18.900;2024-02-16T14:03:27;98971.75;;;24.25;42.50
35758;BME280;21879;50.110;18.900;2024-02-16T14:13:34;98972.10;;;24.34;41.99
35758;BME280;21879;50.110;18.900;2024-02-16T14:23:39;98965.05;;;24.39;41.33
35758;BME280;21879;50.110;18.900;2024-02-16T14:33:44;98958.55;;;24.41;41.05
35758;BME280;21879;50.110;18.900;2024-02-16T14:43:50;98952.01;;;24.40;40.64
35758;BME280;21879;50.110;18.900;2024-02-16T14:53:56;98945.26;;;24.37;40.23
35758;BME280;21879;50.110;18.900;2024-02-16T15:04:04;98945.25;;;24.34;39.82
35758;BME280;21879;50.110;18.900;2024-02-16T15:14:10;98941.13;;;24.27;39.48
35758;BME280;21879;50.110;18.900;2024-02-16T15:24:21;98944.94;;;24.13;39.11
35758;BME280;21879;50.110;18.900;2024-02-16T15:34:26;98945.34;;;23.98;38.66
35758;BME280;21879;50.110;18.900;2024-02-16T15:44:32;98934.52;;;23.83;38.34
35758;BME280;21879;50.110;18.900;2024-02-16T15:54:39;98930.27;;;23.71;38.14
35758;BME280;21879;50.110;18.900;2024-02-16T16:04:46;98933.36;;;23.61;38.00
35758;BME280;21879;50.110;18.900;2024-02-16T16:14:52;98935.17;;;23.51;37.70
35758;BME280;21879;50.110;18.900;2024-02-16T16:24:58;98940.32;;;23.41;37.67
35758;BME280;21879;50.110;18.900;2024-02-16T16:35:04;98944.17;;;23.33;37.80
35758;BME280;21879;50.110;18.900;2024-02-16T16:45:11;98951.60;;;23.28;38.02
35758;BME280;21879;50.110;18.900;2024-02-16T16:55:17;98962.86;;;23.23;38.16
35758;BME280;21879;50.110;18.900;2024-02-16T17:05:22;98970.56;;;23.19;38.33
35758;BME280;21879;50.110;18.900;2024-02-16T17:15:28;98982.59;;;23.16;38.52
35758;BME280;21879;50.110;18.900;2024-02-16T17:25:37;98987.11;;;23.14;38.89
35758;BME280;21879;50.110;18.900;2024-02-16T17:35:43;99000.16;;;23.13;38.90
35758;BME280;21879;50.110;18.900;2024-02-16T17:45:49;99006.67;;;23.11;38.96
35758;BME280;21879;50.110;18.900;2024-02-16T17:55:55;99011.42;;;23.08;39.11
35758;BME280;21879;50.110;18.900;2024-02-16T18:06:00;99020.05;;;23.09;39.36
35758;BME280;21879;50.110;18.900;2024-02-16T18:16:07;99017.73;;;23.09;39.60
35758;BME280;21879;50.110;18.900;2024-02-16T18:26:13;99020.15;;;23.11;40.58
35758;BME280;21879;50.110;18.900;2024-02-16T18:36:19;99015.31;;;23.12;40.74
35758;BME280;21879;50.110;18.900;2024-02-16T18:46:24;99015.92;;;23.10;40.55
35758;BME280;21879;50.110;18.900;2024-02-16T18:56:30;99024.73;;;23.08;40.83
35758;BME280;21879;50.110;18.900;2024-02-16T19:06:35;99030.67;;;23.06;40.86
35758;BME280;21879;50.110;18.900;2024-02-16T19:16:41;99026.20;;;23.04;40.51
35758;BME280;21879;50.110;18.900;2024-02-16T19:26:46;99025.52;;;23.01;40.38
35758;BME280;21879;50.110;18.900;2024-02-16T19:36:51;99026.94;;;22.97;40.18
35758;BME280;21879;50.110;18.900;2024-02-16T19:46:57;99033.45;;;22.95;40.06
35758;BME280;21879;50.110;18.900;2024-02-16T19:57:03;99040.27;;;22.93;40.25
35758;BME280;21879;50.110;18.900;2024-02-16T20:07:08;99042.95;;;22.92;40.39
35758;BME280;21879;50.110;18.900;2024-02-16T20:17:14;99050.05;;;22.92;40.43
35758;BME280;21879;50.110;18.900;2024-02-16T20:27:20;99055.41;;;22.91;40.29
35758;BME280;21879;50.110;18.900;2024-02-16T20:37:26;99055.83;;;22.90;40.36
35758;BME280;21879;50.110;18.900;2024-02-16T20:47:31;99056.47;;;22.88;40.28
35758;BME280;21879;50.110;18.900;2024-02-16T20:57:38;99051.25;;;22.86;40.01
35758;BME280;21879;50.110;18.900;2024-02-16T21:07:44;99048.94;;;22.83;39.68
35758;BME280;21879;50.110;18.900;2024-02-16T21:17:49;99058.55;;;22.79;39.38
35758;BME280;21879;50.110;18.900;2024-02-16T21:27:56;99061.70;;;22.76;39.41
35758;BME280;21879;50.110;18.900;2024-02-16T21:38:01;99068.23;;;22.73;39.25
35758;BME280;21879;50.110;18.900;2024-02-16T21:48:07;99064.84;;;22.71;39.15
35758;BME280;21879;50.110;18.900;2024-02-16T21:58:19;99065.15;;;22.68;38.93
35758;BME280;21879;50.110;18.900;2024-02-16T22:08:25;99066.54;;;22.66;38.87
35758;BME280;21879;50.110;18.900;2024-02-16T22:18:31;99065.05;;;22.64;38.82
35758;BME280;21879;50.110;18.900;2024-02-16T22:28:37;99064.82;;;22.61;38.63
35758;BME280;21879;50.110;18.900;2024-02-16T22:38:42;99060.17;;;22.59;38.55
35758;BME280;21879;50.110;18.900;2024-02-16T22:48:48;99065.11;;;22.56;38.41
35758;BME280;21879;50.110;18.900;2024-02-16T22:58:55;99062.37;;;22.54;38.41
35758;BME280;21879;50.110;18.900;2024-02-16T23:09:00;99068.30;;;22.52;38.25
35758;BME280;21879;50.110;18.900;2024-02-16T23:19:06;99068.74;;;22.50;38.28
35758;BME280;21879;50.110;18.900;2024-02-16T23:29:12;99068.50;;;22.49;38.17
35758;BME280;21879;50.110;18.900;2024-02-16T23:39:17;99071.93;;;22.47;38.25
35758;BME280;21879;50.110;18.900;2024-02-16T23:49:23;99063.70;;;22.46;38.10
35758;BME280;21879;50.110;18.900;2024-02-16T23:59:29;99068.52;;;22.45;38.20
